sensor_id;sensor_type;location;lat;lon;timestamp;pressure;altitude;pressure_sealevel;temperature;humidity
37420;BME280;47344;52.374;4.816;2023-03-01T00:01:11;103222.0;;;3.63;100.0
37420;BME280;47344;52.374;4.816;2023-03-01T00:04:26;103223.0;;;3.67;100.0
37420;BME280;47344;52.374;4.816;2023-03-01T00:06:04;103223.0;;;3.71;100.0
37420;BME280;47344;52.374;4.816;2023-03-01T00:07:40;103217.0;;;3.76;100.0
37420;BME280;47344;52.374;4.816;2023-03-01T00:11:03;103218.0;;;3.67;100.0
37420;BME280;47344;52.374;4.816;2023-03-01T00:14:16;103219.0;;;3.65;100.0
37420;BME280;47344;52.374;4.816;2023-03-01T00:15:52;103219.0;;;3.67;100.0
37420;BME280;47344;52.374;4.816;2023-03-01T00:19:04;103216.00000000001;;;3.49;100.0
37420;BME280;47344;52.374;4.816;2023-03-01T00:20:41;103213.00000000001;;;3.63;100.0
37420;BME280;47344;52.374;4.816;2023-03-01T00:22:17;103208.99999999999;;;3.49;100.0
37420;BME280;47344;52.374;4.816;2023-03-01T00:25:30;103211.99999999999;;;3.51;100.0
37420;BME280;47344;52.374;4.816;2023-03-01T00:27:07;103208.0;;;3.54;100.0
37420;BME280;47344;52.374;4.816;2023-03-01T00:28:43;103206.0;;;3.53;100.0
37420;BME280;47344;52.374;4.816;2023-03-01T00:31:56;103208.0;;;3.61;100.0
37420;BME280;47344;52.374;4.816;2023-03-01T00:33:33;103209.99999999999;;;3.63;100.0
37420;BME280;47344;52.374;4.816;2023-03-01T00:36:46;103202.0;;;3.47;100.0
37420;BME280;47344;52.374;4.816;2023-03-01T00:39:58;103205.0;;;3.35;100.0
37420;BME280;47344;52.374;4.816;2023-03-01T00:41:34;103200.0;;;3.43;100.0
37420;BME280;47344;52.374;4.816;2023-03-01T00:43:10;103196.0;;;3.26;100.0
37420;BME280;47344;52.374;4.816;2023-03-01T00:46:24;103198.0;;;3.03;100.0
37420;BME280;47344;52.374;4.816;2023-03-01T00:48:02;103199.0;;;2.98;100.0
37420;BME280;47344;52.374;4.816;2023-03-01T00:49:38;103197.0;;;2.93;100.0
37420;BME280;47344;52.374;4.816;2023-03-01T00:52:53;103206.0;;;2.7;100.0
37420;BME280;47344;52.374;4.816;2023-03-01T00:54:30;103206.0;;;2.57;100.0
37420;BME280;47344;52.374;4.816;2023-03-01T00:56:09;103203.0;;;2.52;100.0
37420;BME280;47344;52.374;4.816;2023-03-01T00:57:45;103201.0;;;2.52;100.0
37420;BME280;47344;52.374;4.816;2023-03-01T01:00:58;103202.0;;;2.52;100.0
37420;BME280;47344;52.374;4.816;2023-03-01T01:02:34;103197.0;;;2.48;100.0
37420;BME280;47344;52.374;4.816;2023-03-01T01:04:13;103202.0;;;2.56;100.0
37420;BME280;47344;52.374;4.816;2023-03-01T01:07:25;103195.0;;;2.58;100.0
37420;BME280;47344;52.374;4.816;2023-03-01T01:09:02;103201.0;;;2.72;100.0
37420;BME280;47344;52.374;4.816;2023-03-01T01:10:43;103200.0;;;2.6;100.0
37420;BME280;47344;52.374;4.816;2023-03-01T01:12:20;103200.0;;;2.59;100.0
37420;BME280;47344;52.374;4.816;2023-03-01T01:15:34;103199.0;;;2.58;100.0
37420;BME280;47344;52.374;4.816;2023-03-01T01:17:10;103194.0;;;2.6;100.0
37420;BME280;47344;52.374;4.816;2023-03-01T01:18:46;103193.0;;;2.56;100.0
37420;BME280;47344;52.374;4.816;2023-03-01T01:21:58;103196.0;;;2.6;100.0
37420;BME280;47344;52.374;4.816;2023-03-01T01:23:35;103189.00000000001;;;2.37;100.0
37420;BME280;47344;52.374;4.816;2023-03-01T01:25:12;103178.0;;;2.33;100.0
37420;BME280;47344;52.374;4.816;2023-03-01T01:28:25;103180.0;;;2.19;100.0
37420;BME280;47344;52.374;4.816;2023-03-01T01:30:02;103174.0;;;2.11;100.0
37420;BME280;47344;52.374;4.816;2023-03-01T01:31:41;103171.0;;;2.19;100.0
37420;BME280;47344;52.374;4.816;2023-03-01T01:33:17;103170.0;;;2.21;100.0
37420;BME280;47344;52.374;4.816;2023-03-01T01:36:30;103159.99999999999;;;2.12;100.0
37420;BME280;47344;52.374;4.816;2023-03-01T01:38:09;103163.00000000001;;;2.21;100.0
37420;BME280;47344;52.374;4.816;2023-03-01T01:39:45;103163.00000000001;;;1.98;100.0
37420;BME280;47344;52.374;4.816;2023-03-01T01:42:59;103152.0;;;1.94;100.0
37420;BME280;47344;52.374;4.816;2023-03-01T01:44:35;103158.0;;;1.92;100.0
37420;BME280;47344;52.374;4.816;2023-03-01T01:46:18;103145.0;;;1.82;100.0
37420;BME280;47344;52.374;4.816;2023-03-01T01:48:00;103148.0;;;1.77;100.0
37420;BME280;47344;52.374;4.816;2023-03-01T01:51:24;103148.0;;;1.86;100.0
37420;BME280;47344;52.374;4.816;2023-03-01T01:53:01;103152.0;;;1.98;100.0
37420;BME280;47344;52.374;4.816;2023-03-01T01:54:42;103149.0;;;2.0;100.0
37420;BME280;47344;52.374;4.816;2023-03-01T01:56:22;103142.0;;;1.94;100.0
37420;BME280;47344;52.374;4.816;2023-03-01T01:59:45;103140.00000000001;;;1.68;100.0
37420;BME280;47344;52.374;4.816;2023-03-01T02:01:26;103143.0;;;1.59;100.0
37420;BME280;47344;52.374;4.816;2023-03-01T02:03:05;103143.0;;;1.53;100.0
37420;BME280;47344;52.374;4.816;2023-03-01T02:04:44;103146.0;;;1.45;100.0
37420;BME280;47344;52.374;4.816;2023-03-01T02:08:05;103145.0;;;1.35;100.0
37420;BME280;47344;52.374;4.816;2023-03-01T02:09:46;103143.0;;;1.4;100.0
37420;BME280;47344;52.374;4.816;2023-03-01T02:11:25;103145.0;;;1.42;100.0
37420;BME280;47344;52.374;4.816;2023-03-01T02:13:03;103144.0;;;1.31;100.0
37420;BME280;47344;52.374;4.816;2023-03-01T02:16:16;103144.0;;;1.31;100.0
37420;BME280;47344;52.374;4.816;2023-03-01T02:17:54;103141.00000000001;;;1.29;100.0
37420;BME280;47344;52.374;4.816;2023-03-01T02:19:42;103140.00000000001;;;1.19;100.0
37420;BME280;47344;52.374;4.816;2023-03-01T02:21:41;103134.99999999999;;;1.16;100.0
37420;BME280;47344;52.374;4.816;2023-03-01T02:23:24;103133.0;;;1.13;100.0
37420;BME280;47344;52.374;4.816;2023-03-01T02:26:52;103130.0;;;1.1;100.0
37420;BME280;47344;52.374;4.816;2023-03-01T02:28:31;103125.0;;;1.16;100.0
37420;BME280;47344;52.374;4.816;2023-03-01T02:30:10;103124.0;;;1.11;100.0
37420;BME280;47344;52.374;4.816;2023-03-01T02:31:47;103117.0;;;1.0;100.0
37420;BME280;47344;52.374;4.816;2023-03-01T02:35:02;103123.0;;;1.17;100.0
37420;BME280;47344;52.374;4.816;2023-03-01T02:36:40;103119.0;;;1.01;100.0
37420;BME280;47344;52.374;4.816;2023-03-01T02:38:18;103123.0;;;0.96;100.0
37420;BME280;47344;52.374;4.816;2023-03-01T02:41:38;103121.0;;;0.94;100.0
37420;BME280;47344;52.374;4.816;2023-03-01T02:43:19;103124.0;;;0.91;100.0
37420;BME280;47344;52.374;4.816;2023-03-01T02:44:58;103115.00000000001;;;0.9;100.0
37420;BME280;47344;52.374;4.816;2023-03-01T02:46:34;103121.0;;;0.86;100.0
37420;BME280;47344;52.374;4.816;2023-03-01T02:49:55;103115.00000000001;;;0.84;100.0
37420;BME280;47344;52.374;4.816;2023-03-01T02:51:43;103114.00000000001;;;0.85;100.0
37420;BME280;47344;52.374;4.816;2023-03-01T02:53:27;103114.00000000001;;;0.79;100.0
37420;BME280;47344;52.374;4.816;2023-03-01T02:55:11;103117.0;;;0.78;100.0
37420;BME280;47344;52.374;4.816;2023-03-01T02:58:27;103102.0;;;0.81;100.0
37420;BME280;47344;52.374;4.816;2023-03-01T03:00:06;103108.0;;;0.85;100.0
37420;BME280;47344;52.374;4.816;2023-03-01T03:01:44;103108.0;;;0.81;100.0
37420;BME280;47344;52.374;4.816;2023-03-01T03:03:21;103105.0;;;0.85;100.0
37420;BME280;47344;52.374;4.816;2023-03-01T03:06:33;103104.0;;;0.86;100.0
37420;BME280;47344;52.374;4.816;2023-03-01T03:08:10;103104.0;;;0.73;100.0
37420;BME280;47344;52.374;4.816;2023-03-01T03:09:46;103100.0;;;0.73;100.0
37420;BME280;47344;52.374;4.816;2023-03-01T03:13:00;103101.0;;;0.69;100.0
37420;BME280;47344;52.374;4.816;2023-03-01T03:14:37;103092.0;;;0.8;100.0
37420;BME280;47344;52.374;4.816;2023-03-01T03:16:13;103090.00000000001;;;0.85;100.0
37420;BME280;47344;52.374;4.816;2023-03-01T03:17:50;103094.0;;;0.86;100.0
37420;BME280;47344;52.374;4.816;2023-03-01T03:21:07;103093.0;;;0.76;100.0
37420;BME280;47344;52.374;4.816;2023-03-01T03:22:43;103089.00000000001;;;0.69;100.0
37420;BME280;47344;52.374;4.816;2023-03-01T03:24:19;103083.99999999999;;;0.71;100.0
37420;BME280;47344;52.374;4.816;2023-03-01T03:27:32;103088.00000000001;;;0.66;100.0
37420;BME280;47344;52.374;4.816;2023-03-01T03:29:08;103078.0;;;0.65;100.0
37420;BME280;47344;52.374;4.816;2023-03-01T03:30:44;103074.0;;;0.76;100.0
37420;BME280;47344;52.374;4.816;2023-03-01T03:33:56;103071.0;;;0.7;100.0
37420;BME280;47344;52.374;4.816;2023-03-01T03:35:37;103070.0;;;0.59;100.0
37420;BME280;47344;52.374;4.816;2023-03-01T03:37:15;103068.0;;;0.6;100.0
37420;BME280;47344;52.374;4.816;2023-03-01T03:38:52;103069.0;;;0.58;100.0
37420;BME280;47344;52.374;4.816;2023-03-01T03:42:08;103064.00000000001;;;0.62;100.0
37420;BME280;47344;52.374;4.816;2023-03-01T03:43:44;103064.00000000001;;;0.78;100.0
37420;BME280;47344;52.374;4.816;2023-03-01T03:45:20;103058.99999999999;;;0.86;100.0
37420;BME280;47344;52.374;4.816;2023-03-01T03:48:33;103058.99999999999;;;0.79;100.0
37420;BME280;47344;52.374;4.816;2023-03-01T03:50:10;103064.00000000001;;;0.87;100.0
37420;BME280;47344;52.374;4.816;2023-03-01T03:51:48;103059.99999999999;;;0.8;100.0
37420;BME280;47344;52.374;4.816;2023-03-01T03:53:25;103067.0;;;0.93;100.0
37420;BME280;47344;52.374;4.816;2023-03-01T03:56:40;103063.00000000001;;;0.86;100.0
37420;BME280;47344;52.374;4.816;2023-03-01T03:58:18;103063.00000000001;;;0.8;100.0
37420;BME280;47344;52.374;4.816;2023-03-01T03:59:54;103067.0;;;0.82;100.0
37420;BME280;47344;52.374;4.816;2023-03-01T04:03:07;103067.0;;;0.69;100.0
37420;BME280;47344;52.374;4.816;2023-03-01T04:04:45;103074.0;;;0.51;100.0
37420;BME280;47344;52.374;4.816;2023-03-01T04:06:21;103075.0;;;0.75;100.0
37420;BME280;47344;52.374;4.816;2023-03-01T04:11:12;103075.0;;;0.5;100.0
37420;BME280;47344;52.374;4.816;2023-03-01T04:12:48;103069.0;;;0.66;100.0
37420;BME280;47344;52.374;4.816;2023-03-01T04:14:24;103074.0;;;0.54;100.0
37420;BME280;47344;52.374;4.816;2023-03-01T04:17:37;103065.00000000001;;;0.4;100.0
37420;BME280;47344;52.374;4.816;2023-03-01T04:19:13;103063.00000000001;;;0.33;100.0
37420;BME280;47344;52.374;4.816;2023-03-01T04:20:49;103053.0;;;0.32;100.0
37420;BME280;47344;52.374;4.816;2023-03-01T04:24:03;103050.0;;;0.27;100.0
37420;BME280;47344;52.374;4.816;2023-03-01T04:25:41;103057.0;;;0.31;100.0
37420;BME280;47344;52.374;4.816;2023-03-01T04:27:17;103054.0;;;0.23;100.0
37420;BME280;47344;52.374;4.816;2023-03-01T04:28:54;103053.0;;;0.23;100.0
37420;BME280;47344;52.374;4.816;2023-03-01T04:32:06;103055.0;;;0.26;100.0
37420;BME280;47344;52.374;4.816;2023-03-01T04:33:44;103054.0;;;0.31;100.0
37420;BME280;47344;52.374;4.816;2023-03-01T04:35:20;103054.0;;;0.15;100.0
37420;BME280;47344;52.374;4.816;2023-03-01T04:38:33;103048.0;;;0.11;100.0
37420;BME280;47344;52.374;4.816;2023-03-01T04:40:10;103046.0;;;0.25;100.0
37420;BME280;47344;52.374;4.816;2023-03-01T04:41:46;103046.0;;;0.2;100.0
37420;BME280;47344;52.374;4.816;2023-03-01T04:44:59;103045.0;;;0.12;100.0
37420;BME280;47344;52.374;4.816;2023-03-01T04:46:35;103041.00000000001;;;0.08;100.0
37420;BME280;47344;52.374;4.816;2023-03-01T04:48:12;103036.99999999999;;;0.04;100.0
37420;BME280;47344;52.374;4.816;2023-03-01T04:49:49;103032.0;;;0.22;100.0
37420;BME280;47344;52.374;4.816;2023-03-01T04:53:01;103038.00000000001;;;0.09;100.0
37420;BME280;47344;52.374;4.816;2023-03-01T04:54:38;103033.0;;;0.03;100.0
37420;BME280;47344;52.374;4.816;2023-03-01T04:56:15;103039.00000000001;;;0.1;100.0
37420;BME280;47344;52.374;4.816;2023-03-01T04:59:29;103042.0;;;0.12;100.0
37420;BME280;47344;52.374;4.816;2023-03-01T05:01:09;103044.0;;;0.15;100.0
37420;BME280;47344;52.374;4.816;2023-03-01T05:02:47;103038.00000000001;;;0.04;100.0
37420;BME280;47344;52.374;4.816;2023-03-01T05:06:00;103041.00000000001;;;0.15;100.0
37420;BME280;47344;52.374;4.816;2023-03-01T05:07:36;103043.0;;;0.04;100.0
37420;BME280;47344;52.374;4.816;2023-03-01T05:09:12;103042.0;;;0.09;100.0
37420;BME280;47344;52.374;4.816;2023-03-01T05:10:51;103039.00000000001;;;0.08;100.0
37420;BME280;47344;52.374;4.816;2023-03-01T05:14:05;103042.0;;;0.11;100.0
37420;BME280;47344;52.374;4.816;2023-03-01T05:15:42;103038.00000000001;;;0.13;100.0
37420;BME280;47344;52.374;4.816;2023-03-01T05:17:18;103027.0;;;0.05;100.0
37420;BME280;47344;52.374;4.816;2023-03-01T05:20:30;103023.0;;;0.06;100.0
37420;BME280;47344;52.374;4.816;2023-03-01T05:22:07;103024.0;;;-0.02;100.0
37420;BME280;47344;52.374;4.816;2023-03-01T05:23:43;103021.0;;;0.01;100.0
37420;BME280;47344;52.374;4.816;2023-03-01T05:26:58;103027.0;;;0.0;100.0
37420;BME280;47344;52.374;4.816;2023-03-01T05:28:34;103008.99999999999;;;-0.03;100.0
37420;BME280;47344;52.374;4.816;2023-03-01T05:30:12;103007.0;;;0.08;100.0
37420;BME280;47344;52.374;4.816;2023-03-01T05:31:48;103008.0;;;0.08;100.0
37420;BME280;47344;52.374;4.816;2023-03-01T05:35:03;103008.0;;;0.03;100.0
37420;BME280;47344;52.374;4.816;2023-03-01T05:36:40;102999.0;;;0.0;100.0
37420;BME280;47344;52.374;4.816;2023-03-01T05:38:16;102996.0;;;0.05;100.0
37420;BME280;47344;52.374;4.816;2023-03-01T05:41:28;102994.0;;;0.01;100.0
37420;BME280;47344;52.374;4.816;2023-03-01T05:43:05;102992.0;;;-0.08;100.0
37420;BME280;47344;52.374;4.816;2023-03-01T05:44:41;102992.0;;;-0.13;100.0
37420;BME280;47344;52.374;4.816;2023-03-01T05:46:18;102991.00000000001;;;-0.16;100.0
37420;BME280;47344;52.374;4.816;2023-03-01T05:49:31;102986.99999999999;;;-0.14;100.0
37420;BME280;47344;52.374;4.816;2023-03-01T05:51:07;102984.99999999999;;;-0.13;100.0
37420;BME280;47344;52.374;4.816;2023-03-01T05:52:44;102983.0;;;-0.18;100.0
37420;BME280;47344;52.374;4.816;2023-03-01T05:55:59;102988.00000000001;;;-0.09;100.0
37420;BME280;47344;52.374;4.816;2023-03-01T05:57:35;102981.0;;;-0.08;100.0
37420;BME280;47344;52.374;4.816;2023-03-01T05:59:11;102984.99999999999;;;-0.16;100.0
37420;BME280;47344;52.374;4.816;2023-03-01T06:02:24;102989.00000000001;;;-0.17;100.0
37420;BME280;47344;52.374;4.816;2023-03-01T06:04:00;102989.00000000001;;;-0.16;100.0
37420;BME280;47344;52.374;4.816;2023-03-01T06:05:38;102984.99999999999;;;-0.09;100.0
37420;BME280;47344;52.374;4.816;2023-03-01T06:07:15;102983.0;;;-0.03;100.0
37420;BME280;47344;52.374;4.816;2023-03-01T06:10:28;102982.0;;;0.02;100.0
37420;BME280;47344;52.374;4.816;2023-03-01T06:12:05;102983.99999999999;;;0.0;100.0
37420;BME280;47344;52.374;4.816;2023-03-01T06:13:42;102981.0;;;0.01;100.0
37420;BME280;47344;52.374;4.816;2023-03-01T06:16:57;102982.0;;;-0.03;100.0
37420;BME280;47344;52.374;4.816;2023-03-01T06:18:34;102984.99999999999;;;-0.04;100.0
37420;BME280;47344;52.374;4.816;2023-03-01T06:20:13;102978.0;;;0.0;100.0
37420;BME280;47344;52.374;4.816;2023-03-01T06:23:26;102975.0;;;0.04;100.0
37420;BME280;47344;52.374;4.816;2023-03-01T06:25:03;102980.0;;;0.06;100.0
37420;BME280;47344;52.374;4.816;2023-03-01T06:26:40;102978.0;;;0.09;100.0
37420;BME280;47344;52.374;4.816;2023-03-01T06:28:16;102975.0;;;0.15;100.0
37420;BME280;47344;52.374;4.816;2023-03-01T06:31:29;102978.0;;;0.17;100.0
37420;BME280;47344;52.374;4.816;2023-03-01T06:33:05;102975.0;;;0.26;100.0
37420;BME280;47344;52.374;4.816;2023-03-01T06:34:41;102979.0;;;0.33;100.0
37420;BME280;47344;52.374;4.816;2023-03-01T06:37:53;102977.0;;;0.36;100.0
37420;BME280;47344;52.374;4.816;2023-03-01T06:39:29;102978.0;;;0.42;100.0
37420;BME280;47344;52.374;4.816;2023-03-01T06:41:07;102983.0;;;0.52;100.0
37420;BME280;47344;52.374;4.816;2023-03-01T06:44:25;102982.0;;;0.6;100.0
37420;BME280;47344;52.374;4.816;2023-03-01T06:46:04;102988.00000000001;;;0.67;100.0
37420;BME280;47344;52.374;4.816;2023-03-01T06:47:40;102991.00000000001;;;0.84;100.0
37420;BME280;47344;52.374;4.816;2023-03-01T06:49:16;102992.0;;;0.99;100.0
37420;BME280;47344;52.374;4.816;2023-03-01T06:52:30;102992.0;;;0.97;100.0
37420;BME280;47344;52.374;4.816;2023-03-01T06:54:07;102983.99999999999;;;1.13;100.0
37420;BME280;47344;52.374;4.816;2023-03-01T06:55:43;102983.0;;;1.17;100.0
37420;BME280;47344;52.374;4.816;2023-03-01T06:58:55;102988.00000000001;;;1.21;100.0
37420;BME280;47344;52.374;4.816;2023-03-01T07:00:32;102992.0;;;1.35;100.0
37420;BME280;47344;52.374;4.816;2023-03-01T07:02:10;102992.0;;;1.3;100.0
37420;BME280;47344;52.374;4.816;2023-03-01T07:03:47;102991.00000000001;;;1.29;100.0
37420;BME280;47344;52.374;4.816;2023-03-01T07:06:59;102994.0;;;1.3;100.0
37420;BME280;47344;52.374;4.816;2023-03-01T07:08:35;102997.0;;;1.34;100.0
37420;BME280;47344;52.374;4.816;2023-03-01T07:10:11;102996.0;;;1.33;100.0
37420;BME280;47344;52.374;4.816;2023-03-01T07:13:26;103005.0;;;1.33;100.0
37420;BME280;47344;52.374;4.816;2023-03-01T07:15:02;102996.0;;;1.38;100.0
37420;BME280;47344;52.374;4.816;2023-03-01T07:16:40;103001.0;;;1.41;100.0
37420;BME280;47344;52.374;4.816;2023-03-01T07:19:52;103002.0;;;1.45;100.0
37420;BME280;47344;52.374;4.816;2023-03-01T07:21:29;103002.0;;;1.58;100.0
37420;BME280;47344;52.374;4.816;2023-03-01T07:23:06;102998.0;;;1.65;100.0
37420;BME280;47344;52.374;4.816;2023-03-01T07:24:43;103008.0;;;1.75;100.0
37420;BME280;47344;52.374;4.816;2023-03-01T07:27:55;103003.0;;;1.86;100.0
37420;BME280;47344;52.374;4.816;2023-03-01T07:29:31;103008.0;;;2.06;100.0
37420;BME280;47344;52.374;4.816;2023-03-01T07:31:07;103005.0;;;2.02;100.0
37420;BME280;47344;52.374;4.816;2023-03-01T07:34:20;103002.0;;;2.13;100.0
37420;BME280;47344;52.374;4.816;2023-03-01T07:35:57;103005.0;;;2.21;100.0
37420;BME280;47344;52.374;4.816;2023-03-01T07:37:33;103013.00000000001;;;2.29;100.0
37420;BME280;47344;52.374;4.816;2023-03-01T07:40:46;103013.00000000001;;;2.58;100.0
37420;BME280;47344;52.374;4.816;2023-03-01T07:42:23;103009.99999999999;;;2.48;100.0
37420;BME280;47344;52.374;4.816;2023-03-01T07:43:59;103008.99999999999;;;2.58;100.0
37420;BME280;47344;52.374;4.816;2023-03-01T07:45:35;103013.00000000001;;;2.77;100.0
37420;BME280;47344;52.374;4.816;2023-03-01T07:48:47;103009.99999999999;;;2.73;100.0
37420;BME280;47344;52.374;4.816;2023-03-01T07:50:23;103008.99999999999;;;2.83;100.0
37420;BME280;47344;52.374;4.816;2023-03-01T07:51:59;103008.99999999999;;;2.99;100.0
37420;BME280;47344;52.374;4.816;2023-03-01T07:55:13;103009.99999999999;;;3.08;100.0
37420;BME280;47344;52.374;4.816;2023-03-01T07:56:50;103008.99999999999;;;3.09;100.0
37420;BME280;47344;52.374;4.816;2023-03-01T07:58:26;103007.0;;;3.12;100.0
37420;BME280;47344;52.374;4.816;2023-03-01T08:01:40;103006.0;;;3.16;100.0
37420;BME280;47344;52.374;4.816;2023-03-01T08:03:17;103009.99999999999;;;3.26;100.0
37420;BME280;47344;52.374;4.816;2023-03-01T08:04:53;103014.00000000001;;;3.02;100.0
37420;BME280;47344;52.374;4.816;2023-03-01T08:06:29;103013.00000000001;;;3.11;100.0
37420;BME280;47344;52.374;4.816;2023-03-01T08:09:42;103013.00000000001;;;3.25;100.0
37420;BME280;47344;52.374;4.816;2023-03-01T08:11:18;103013.00000000001;;;3.49;100.0
37420;BME280;47344;52.374;4.816;2023-03-01T08:12:54;103011.99999999999;;;3.51;100.0
37420;BME280;47344;52.374;4.816;2023-03-01T08:16:07;103006.0;;;3.62;100.0
37420;BME280;47344;52.374;4.816;2023-03-01T08:17:46;103002.0;;;3.79;100.0
37420;BME280;47344;52.374;4.816;2023-03-01T08:19:25;103008.0;;;3.9;100.0
37420;BME280;47344;52.374;4.816;2023-03-01T08:22:40;103007.0;;;3.93;100.0
37420;BME280;47344;52.374;4.816;2023-03-01T08:24:16;103005.0;;;4.1;100.0
37420;BME280;47344;52.374;4.816;2023-03-01T08:25:52;103001.0;;;4.13;100.0
37420;BME280;47344;52.374;4.816;2023-03-01T08:27:28;103007.0;;;4.16;100.0
37420;BME280;47344;52.374;4.816;2023-03-01T08:30:41;102999.0;;;4.28;100.0
37420;BME280;47344;52.374;4.816;2023-03-01T08:32:17;102996.0;;;4.2;100.0
37420;BME280;47344;52.374;4.816;2023-03-01T08:33:55;102998.0;;;4.36;100.0
37420;BME280;47344;52.374;4.816;2023-03-01T08:37:09;102994.0;;;4.43;100.0
37420;BME280;47344;52.374;4.816;2023-03-01T08:38:45;102994.0;;;4.42;100.0
37420;BME280;47344;52.374;4.816;2023-03-01T08:40:22;103000.0;;;3.95;100.0
37420;BME280;47344;52.374;4.816;2023-03-01T08:43:34;102997.0;;;4.05;100.0
37420;BME280;47344;52.374;4.816;2023-03-01T08:45:11;102994.0;;;4.07;100.0
37420;BME280;47344;52.374;4.816;2023-03-01T08:46:47;102994.0;;;4.25;100.0
37420;BME280;47344;52.374;4.816;2023-03-01T08:48:23;102995.0;;;4.13;100.0
37420;BME280;47344;52.374;4.816;2023-03-01T08:51:38;102995.0;;;4.14;100.0
37420;BME280;47344;52.374;4.816;2023-03-01T08:53:15;102993.0;;;4.07;100.0
37420;BME280;47344;52.374;4.816;2023-03-01T08:54:51;102998.0;;;4.05;100.0
37420;BME280;47344;52.374;4.816;2023-03-01T08:58:03;102993.0;;;4.18;100.0
37420;BME280;47344;52.374;4.816;2023-03-01T08:59:40;102996.0;;;4.37;100.0
37420;BME280;47344;52.374;4.816;2023-03-01T09:01:18;103002.0;;;4.36;100.0
37420;BME280;47344;52.374;4.816;2023-03-01T09:04:31;103003.0;;;4.57;100.0
37420;BME280;47344;52.374;4.816;2023-03-01T09:06:07;102996.0;;;4.64;100.0
37420;BME280;47344;52.374;4.816;2023-03-01T09:07:44;103001.0;;;4.57;100.0
37420;BME280;47344;52.374;4.816;2023-03-01T09:09:20;102996.0;;;4.67;100.0
37420;BME280;47344;52.374;4.816;2023-03-01T09:12:33;102992.0;;;4.51;100.0
37420;BME280;47344;52.374;4.816;2023-03-01T09:14:09;102989.00000000001;;;4.53;100.0
37420;BME280;47344;52.374;4.816;2023-03-01T09:15:45;102990.00000000001;;;4.53;100.0
37420;BME280;47344;52.374;4.816;2023-03-01T09:18:57;102984.99999999999;;;4.57;100.0
37420;BME280;47344;52.374;4.816;2023-03-01T09:20:33;102982.0;;;4.55;100.0
37420;BME280;47344;52.374;4.816;2023-03-01T09:22:09;102982.0;;;4.38;100.0
37420;BME280;47344;52.374;4.816;2023-03-01T09:25:24;102986.99999999999;;;4.68;100.0
37420;BME280;47344;52.374;4.816;2023-03-01T09:27:00;102986.99999999999;;;4.64;100.0
37420;BME280;47344;52.374;4.816;2023-03-01T09:28:37;102980.0;;;4.37;100.0
37420;BME280;47344;52.374;4.816;2023-03-01T09:30:14;102986.99999999999;;;4.41;100.0
37420;BME280;47344;52.374;4.816;2023-03-01T09:33:26;102986.99999999999;;;4.63;100.0
37420;BME280;47344;52.374;4.816;2023-03-01T09:35:03;102983.0;;;4.75;100.0
37420;BME280;47344;52.374;4.816;2023-03-01T09:36:40;102979.0;;;4.87;100.0
37420;BME280;47344;52.374;4.816;2023-03-01T09:39:52;102981.0;;;4.91;100.0
37420;BME280;47344;52.374;4.816;2023-03-01T09:41:54;102978.0;;;5.0;100.0
37420;BME280;47344;52.374;4.816;2023-03-01T09:43:41;102975.0;;;5.07;100.0
37420;BME280;47344;52.374;4.816;2023-03-01T09:45:28;102979.0;;;4.97;100.0
37420;BME280;47344;52.374;4.816;2023-03-01T09:47:15;102977.0;;;4.89;100.0
37420;BME280;47344;52.374;4.816;2023-03-01T09:50:39;102972.0;;;4.8;100.0
37420;BME280;47344;52.374;4.816;2023-03-01T09:52:23;102977.0;;;5.12;100.0
37420;BME280;47344;52.374;4.816;2023-03-01T09:54:05;102970.0;;;4.64;100.0
37420;BME280;47344;52.374;4.816;2023-03-01T09:55:43;102969.0;;;4.43;100.0
37420;BME280;47344;52.374;4.816;2023-03-01T09:57:28;102967.0;;;4.25;100.0
37420;BME280;47344;52.374;4.816;2023-03-01T10:01:03;102967.0;;;4.5;100.0
37420;BME280;47344;52.374;4.816;2023-03-01T10:02:49;102961.99999999999;;;4.78;100.0
37420;BME280;47344;52.374;4.816;2023-03-01T10:04:36;102964.00000000001;;;4.62;100.0
37420;BME280;47344;52.374;4.816;2023-03-01T10:06:21;102963.00000000001;;;4.68;100.0
37420;BME280;47344;52.374;4.816;2023-03-01T10:08:06;102958.99999999999;;;4.74;100.0
37420;BME280;47344;52.374;4.816;2023-03-01T10:10:04;102957.0;;;4.92;100.0
37420;BME280;47344;52.374;4.816;2023-03-01T10:13:24;102964.00000000001;;;5.03;100.0
37420;BME280;47344;52.374;4.816;2023-03-01T10:15:08;102967.0;;;5.01;100.0
37420;BME280;47344;52.374;4.816;2023-03-01T10:16:50;102968.0;;;5.07;100.0
37420;BME280;47344;52.374;4.816;2023-03-01T10:18:30;102972.0;;;5.03;100.0
37420;BME280;47344;52.374;4.816;2023-03-01T10:22:03;102966.00000000001;;;5.16;100.0
37420;BME280;47344;52.374;4.816;2023-03-01T10:23:46;102970.0;;;5.11;100.0
37420;BME280;47344;52.374;4.816;2023-03-01T10:25:38;102955.0;;;5.37;100.0
37420;BME280;47344;52.374;4.816;2023-03-01T10:27:23;102956.0;;;5.44;100.0
37420;BME280;47344;52.374;4.816;2023-03-01T10:29:03;102949.0;;;5.46;100.0
37420;BME280;47344;52.374;4.816;2023-03-01T10:32:17;102949.0;;;5.61;100.0
37420;BME280;47344;52.374;4.816;2023-03-01T10:33:55;102942.0;;;5.51;99.21
37420;BME280;47344;52.374;4.816;2023-03-01T10:35:33;102936.99999999999;;;5.47;96.46
37420;BME280;47344;52.374;4.816;2023-03-01T10:37:12;102933.99999999999;;;5.58;95.38
37420;BME280;47344;52.374;4.816;2023-03-01T10:40:28;102927.0;;;5.78;94.92
37420;BME280;47344;52.374;4.816;2023-03-01T10:42:07;102927.0;;;5.84;94.15
37420;BME280;47344;52.374;4.816;2023-03-01T10:43:55;102923.0;;;5.97;93.31
37420;BME280;47344;52.374;4.816;2023-03-01T10:45:35;102924.0;;;5.97;91.65
37420;BME280;47344;52.374;4.816;2023-03-01T10:49:25;102919.0;;;5.95;90.51
37420;BME280;47344;52.374;4.816;2023-03-01T10:51:06;102921.0;;;5.96;87.83
37420;BME280;47344;52.374;4.816;2023-03-01T10:52:56;102915.00000000001;;;6.13;85.75
37420;BME280;47344;52.374;4.816;2023-03-01T10:54:34;102911.99999999999;;;6.34;85.37
37420;BME280;47344;52.374;4.816;2023-03-01T10:56:11;102917.0;;;6.48;84.76